sensor_id;sensor_type;location;lat;lon;timestamp;pressure;altitude;pressure_sealevel;temperature;humidity
71764;BME280;59602;52.142;5.408;2023-03-26T00:00:45;100820.69;;;8.43;92.56
71764;BME280;59602;52.142;5.408;2023-03-26T00:03:15;100821.84;;;8.42;93.23
71764;BME280;59602;52.142;5.408;2023-03-26T00:05:43;100831.91;;;8.42;92.87
71764;BME280;59602;52.142;5.408;2023-03-26T00:08:11;100828.41;;;8.41;92.92
71764;BME280;59602;52.142;5.408;2023-03-26T00:10:39;100825.25;;;8.39;92.96
71764;BME280;59602;52.142;5.408;2023-03-26T00:13:07;100823.69;;;8.38;93.05
71764;BME280;59602;52.142;5.408;2023-03-26T00:15:35;100823.69;;;8.38;93.09
71764;BME280;59602;52.142;5.408;2023-03-26T00:18:02;100819.03;;;8.35;93.05
71764;BME280;59602;52.142;5.408;2023-03-26T00:20:30;100817.09;;;8.36;93.33
71764;BME280;59602;52.142;5.408;2023-03-26T00:22:58;100819.78;;;8.36;93.29
71764;BME280;59602;52.142;5.408;2023-03-26T00:25:27;100820.16;;;8.34;93.38
71764;BME280;59602;52.142;5.408;2023-03-26T00:27:54;100819.72;;;8.32;93.56
71764;BME280;59602;52.142;5.408;2023-03-26T00:30:21;100809.66;;;8.32;93.40
71764;BME280;59602;52.142;5.408;2023-03-26T00:32:48;100815.47;;;8.31;93.52
71764;BME280;59602;52.142;5.408;2023-03-26T00:35:19;100815.47;;;8.31;93.29
71764;BME280;59602;52.142;5.408;2023-03-26T00:37:46;100806.56;;;8.30;93.43
71764;BME280;59602;52.142;5.408;2023-03-26T00:40:13;100805.00;;;8.29;93.25
71764;BME280;59602;52.142;5.408;2023-03-26T00:42:39;100801.84;;;8.27;93.19
71764;BME280;59602;52.142;5.408;2023-03-26T00:45:08;100797.59;;;8.26;93.13
71764;BME280;59602;52.142;5.408;2023-03-26T00:47:34;100788.28;;;8.24;93.05
71764;BME280;59602;52.142;5.408;2023-03-26T00:50:02;100785.16;;;8.22;93.25
71764;BME280;59602;52.142;5.408;2023-03-26T00:52:29;100778.91;;;8.18;92.91
71764;BME280;59602;52.142;5.408;2023-03-26T00:54:57;100780.84;;;8.17;93.05
71764;BME280;59602;52.142;5.408;2023-03-26T00:57:23;100784.66;;;8.16;93.09
71764;BME280;59602;52.142;5.408;2023-03-26T01:00:11;100774.19;;;8.15;93.16
71764;BME280;59602;52.142;5.408;2023-03-26T01:02:40;100783.13;;;8.15;93.29
71764;BME280;59602;52.142;5.408;2023-03-26T01:08:18;100774.94;;;8.11;93.28
71764;BME280;59602;52.142;5.408;2023-03-26T01:10:50;100775.28;;;8.10;93.01
71764;BME280;59602;52.142;5.408;2023-03-26T01:13:20;100775.25;;;8.06;93.19
71764;BME280;59602;52.142;5.408;2023-03-26T01:15:48;100761.72;;;8.06;93.26
71764;BME280;59602;52.142;5.408;2023-03-26T01:18:19;100760.13;;;8.05;93.36
71764;BME280;59602;52.142;5.408;2023-03-26T01:20:48;100765.53;;;8.05;93.64
71764;BME280;59602;52.142;5.408;2023-03-26T01:23:21;100750.47;;;8.04;93.36
71764;BME280;59602;52.142;5.408;2023-03-26T01:26:07;100742.69;;;8.03;93.18
71764;BME280;59602;52.142;5.408;2023-03-26T01:28:37;100733.44;;;8.04;93.40
71764;BME280;59602;52.142;5.408;2023-03-26T01:31:21;100729.94;;;8.03;93.45
71764;BME280;59602;52.142;5.408;2023-03-26T01:33:59;100735.34;;;8.03;93.49
71764;BME280;59602;52.142;5.408;2023-03-26T01:36:41;100733.44;;;8.04;93.24
71764;BME280;59602;52.142;5.408;2023-03-26T01:39:22;100727.28;;;8.07;93.39
71764;BME280;59602;52.142;5.408;2023-03-26T01:41:54;100725.72;;;8.06;93.62
71764;BME280;59602;52.142;5.408;2023-03-26T01:44:28;100726.50;;;8.06;93.63
71764;BME280;59602;52.142;5.408;2023-03-26T01:46:58;100718.38;;;8.06;93.44
71764;BME280;59602;52.142;5.408;2023-03-26T01:49:27;100713.75;;;8.07;93.72
71764;BME280;59602;52.142;5.408;2023-03-26T01:51:56;100719.56;;;8.09;93.75
71764;BME280;59602;52.142;5.408;2023-03-26T01:54:25;100704.47;;;8.08;94.02
71764;BME280;59602;52.142;5.408;2023-03-26T01:57:14;100699.84;;;8.08;94.01
71764;BME280;59602;52.142;5.408;2023-03-26T02:00:01;100697.13;;;8.08;94.25
71764;BME280;59602;52.142;5.408;2023-03-26T02:02:48;100695.56;;;8.07;94.13
71764;BME280;59602;52.142;5.408;2023-03-26T02:05:25;100690.50;;;8.06;94.07
71764;BME280;59602;52.142;5.408;2023-03-26T02:10:50;100682.38;;;8.06;94.52
71764;BME280;59602;52.142;5.408;2023-03-26T02:13:18;100671.16;;;8.04;94.04
71764;BME280;59602;52.142;5.408;2023-03-26T02:16:00;100670.34;;;8.03;94.20
71764;BME280;59602;52.142;5.408;2023-03-26T02:18:27;100670.34;;;8.03;94.08
71764;BME280;59602;52.142;5.408;2023-03-26T02:21:11;100665.34;;;8.02;94.09
71764;BME280;59602;52.142;5.408;2023-03-26T02:23:40;100664.53;;;8.01;94.42
71764;BME280;59602;52.142;5.408;2023-03-26T02:26:09;100661.81;;;8.01;94.47
71764;BME280;59602;52.142;5.408;2023-03-26T02:28:37;100669.16;;;8.01;94.22
71764;BME280;59602;52.142;5.408;2023-03-26T02:31:04;100656.03;;;7.99;94.34
71764;BME280;59602;52.142;5.408;2023-03-26T02:33:31;100652.91;;;7.97;94.16
71764;BME280;59602;52.142;5.408;2023-03-26T02:35:58;100651.31;;;7.96;94.51
71764;BME280;59602;52.142;5.408;2023-03-26T02:38:28;100647.47;;;7.97;94.35
71764;BME280;59602;52.142;5.408;2023-03-26T02:40:56;100645.19;;;7.99;94.22
71764;BME280;59602;52.142;5.408;2023-03-26T02:43:22;100649.81;;;7.99;94.22
71764;BME280;59602;52.142;5.408;2023-03-26T02:45:49;100641.25;;;7.97;94.24
71764;BME280;59602;52.142;5.408;2023-03-26T02:48:16;100641.69;;;7.99;94.42
71764;BME280;59602;52.142;5.408;2023-03-26T02:50:43;100644.03;;;8.00;94.62
71764;BME280;59602;52.142;5.408;2023-03-26T02:53:11;100642.88;;;8.01;94.35
71764;BME280;59602;52.142;5.408;2023-03-26T02:55:39;100647.50;;;8.01;94.65
71764;BME280;59602;52.142;5.408;2023-03-26T02:58:05;100636.69;;;8.01;94.73
71764;BME280;59602;52.142;5.408;2023-03-26T03:00:33;100633.63;;;8.02;94.91
71764;BME280;59602;52.142;5.408;2023-03-26T03:03:00;100633.25;;;8.04;94.83
71764;BME280;59602;52.142;5.408;2023-03-26T03:05:30;100634.81;;;8.05;94.89
71764;BME280;59602;52.142;5.408;2023-03-26T03:07:58;100632.94;;;8.09;94.88
71764;BME280;59602;52.142;5.408;2023-03-26T03:10:27;100627.50;;;8.09;95.16
71764;BME280;59602;52.142;5.408;2023-03-26T03:12:53;100622.09;;;8.09;95.35
71764;BME280;59602;52.142;5.408;2023-03-26T03:15:20;100628.69;;;8.11;95.13
71764;BME280;59602;52.142;5.408;2023-03-26T03:17:47;100615.53;;;8.10;95.32
71764;BME280;59602;52.142;5.408;2023-03-26T03:20:14;100629.88;;;8.10;95.52
71764;BME280;59602;52.142;5.408;2023-03-26T03:22:42;100619.81;;;8.11;95.36
71764;BME280;59602;52.142;5.408;2023-03-26T03:25:09;100605.88;;;8.13;95.57
71764;BME280;59602;52.142;5.408;2023-03-26T03:27:40;100612.50;;;8.15;95.62
71764;BME280;59602;52.142;5.408;2023-03-26T03:30:10;100610.56;;;8.16;95.78
71764;BME280;59602;52.142;5.408;2023-03-26T03:32:38;100609.41;;;8.17;95.65
71764;BME280;59602;52.142;5.408;2023-03-26T03:35:05;100605.56;;;8.18;95.94
71764;BME280;59602;52.142;5.408;2023-03-26T03:37:33;100597.44;;;8.18;95.66
71764;BME280;59602;52.142;5.408;2023-03-26T03:39:59;100604.41;;;8.19;95.89
71764;BME280;59602;52.142;5.408;2023-03-26T03:42:26;100596.69;;;8.21;95.84
71764;BME280;59602;52.142;5.408;2023-03-26T03:44:53;100595.16;;;8.20;96.01
71764;BME280;59602;52.142;5.408;2023-03-26T03:47:19;100589.75;;;8.23;96.19
71764;BME280;59602;52.142;5.408;2023-03-26T03:49:48;100597.56;;;8.28;96.18
71764;BME280;59602;52.142;5.408;2023-03-26T03:52:15;100598.78;;;8.35;96.13
71764;BME280;59602;52.142;5.408;2023-03-26T03:54:44;100603.09;;;8.39;95.75
71764;BME280;59602;52.142;5.408;2023-03-26T03:57:11;100602.00;;;8.40;96.07
71764;BME280;59602;52.142;5.408;2023-03-26T03:59:37;100600.81;;;8.41;95.89
71764;BME280;59602;52.142;5.408;2023-03-26T04:02:13;100596.22;;;8.42;96.12
71764;BME280;59602;52.142;5.408;2023-03-26T04:04:46;100590.78;;;8.42;96.33
71764;BME280;59602;52.142;5.408;2023-03-26T04:07:15;100597.41;;;8.44;96.36
71764;BME280;59602;52.142;5.408;2023-03-26T04:09:42;100591.97;;;8.44;96.29
71764;BME280;59602;52.142;5.408;2023-03-26T04:12:09;100587.38;;;8.48;96.25
71764;BME280;59602;52.142;5.408;2023-03-26T04:14:35;100581.16;;;8.48;96.41
71764;BME280;59602;52.142;5.408;2023-03-26T04:17:02;100576.53;;;8.48;96.43
71764;BME280;59602;52.142;5.408;2023-03-26T04:19:30;100579.25;;;8.48;96.60
71764;BME280;59602;52.142;5.408;2023-03-26T04:21:57;100566.47;;;8.49;96.74
71764;BME280;59602;52.142;5.408;2023-03-26T04:24:28;100572.66;;;8.49;96.51
71764;BME280;59602;52.142;5.408;2023-03-26T04:26:56;100561.47;;;8.51;96.83
71764;BME280;59602;52.142;5.408;2023-03-26T04:29:26;100566.09;;;8.50;96.74
71764;BME280;59602;52.142;5.408;2023-03-26T04:31:56;100558.38;;;8.52;96.69
71764;BME280;59602;52.142;5.408;2023-03-26T04:34:24;100551.03;;;8.53;96.62
71764;BME280;59602;52.142;5.408;2023-03-26T04:36:51;100551.81;;;8.54;96.70
71764;BME280;59602;52.142;5.408;2023-03-26T04:39:20;100546.41;;;8.54;96.72
71764;BME280;59602;52.142;5.408;2023-03-26T04:41:48;100542.53;;;8.55;96.87
71764;BME280;59602;52.142;5.408;2023-03-26T04:44:14;100533.97;;;8.52;96.80
71764;BME280;59602;52.142;5.408;2023-03-26T04:46:42;100529.38;;;8.53;96.61
71764;BME280;59602;52.142;5.408;2023-03-26T04:49:10;100522.78;;;8.54;96.87
71764;BME280;59602;52.142;5.408;2023-03-26T04:51:38;100526.25;;;8.55;96.63
71764;BME280;59602;52.142;5.408;2023-03-26T04:54:08;100509.22;;;8.54;96.76
71764;BME280;59602;52.142;5.408;2023-03-26T04:56:45;100513.50;;;8.55;96.67
71764;BME280;59602;52.142;5.408;2023-03-26T04:59:16;100513.88;;;8.54;96.69
71764;BME280;59602;52.142;5.408;2023-03-26T05:01:44;100500.34;;;8.54;96.88
71764;BME280;59602;52.142;5.408;2023-03-26T05:04:12;100504.97;;;8.53;96.84
71764;BME280;59602;52.142;5.408;2023-03-26T05:06:40;100495.28;;;8.52;96.54
71764;BME280;59602;52.142;5.408;2023-03-26T05:09:07;100498.34;;;8.50;96.70
71764;BME280;59602;52.142;5.408;2023-03-26T05:11:35;100494.09;;;8.49;96.51
71764;BME280;59602;52.142;5.408;2023-03-26T05:14:02;100497.97;;;8.48;96.62
71764;BME280;59602;52.142;5.408;2023-03-26T05:16:29;100497.97;;;8.48;96.59
71764;BME280;59602;52.142;5.408;2023-03-26T05:18:57;100484.41;;;8.48;96.93
71764;BME280;59602;52.142;5.408;2023-03-26T05:21:24;100490.63;;;8.49;96.64
71764;BME280;59602;52.142;5.408;2023-03-26T05:23:50;100490.97;;;8.47;96.71
71764;BME280;59602;52.142;5.408;2023-03-26T05:26:17;100480.13;;;8.47;96.73
71764;BME280;59602;52.142;5.408;2023-03-26T05:28:44;100478.19;;;8.48;96.73
71764;BME280;59602;52.142;5.408;2023-03-26T05:31:11;100479.38;;;8.50;96.60
71764;BME280;59602;52.142;5.408;2023-03-26T05:33:39;100472.06;;;8.51;96.62
71764;BME280;59602;52.142;5.408;2023-03-26T05:36:09;100468.59;;;8.54;96.31
71764;BME280;59602;52.142;5.408;2023-03-26T05:38:38;100469.34;;;8.51;96.49
71764;BME280;59602;52.142;5.408;2023-03-26T05:41:07;100457.69;;;8.50;96.34
71764;BME280;59602;52.142;5.408;2023-03-26T05:43:34;100462.00;;;8.51;96.37
71764;BME280;59602;52.142;5.408;2023-03-26T05:46:01;100463.94;;;8.51;96.44
71764;BME280;59602;52.142;5.408;2023-03-26T05:48:29;100460.81;;;8.52;96.48
71764;BME280;59602;52.142;5.408;2023-03-26T05:50:57;100452.31;;;8.54;96.45
71764;BME280;59602;52.142;5.408;2023-03-26T05:53:25;100455.03;;;8.54;96.53
71764;BME280;59602;52.142;5.408;2023-03-26T05:55:52;100456.97;;;8.54;96.75
71764;BME280;59602;52.142;5.408;2023-03-26T05:58:26;100453.91;;;8.55;96.43
71764;BME280;59602;52.142;5.408;2023-03-26T06:01:05;100454.66;;;8.56;96.51
71764;BME280;59602;52.142;5.408;2023-03-26T06:03:37;100451.97;;;8.59;96.41
71764;BME280;59602;52.142;5.408;2023-03-26T06:06:07;100454.31;;;8.61;96.37
71764;BME280;59602;52.142;5.408;2023-03-26T06:08:34;100443.09;;;8.62;96.10
71764;BME280;59602;52.142;5.408;2023-03-26T06:11:03;100440.00;;;8.64;96.53
71764;BME280;59602;52.142;5.408;2023-03-26T06:13:30;100432.69;;;8.64;96.36
71764;BME280;59602;52.142;5.408;2023-03-26T06:15:57;100424.16;;;8.66;96.26
71764;BME280;59602;52.142;5.408;2023-03-26T06:18:25;100420.66;;;8.65;96.34
71764;BME280;59602;52.142;5.408;2023-03-26T06:20:52;100419.53;;;8.66;96.34
71764;BME280;59602;52.142;5.408;2023-03-26T06:23:21;100409.47;;;8.67;96.28
71764;BME280;59602;52.142;5.408;2023-03-26T06:25:48;100416.06;;;8.69;96.41
71764;BME280;59602;52.142;5.408;2023-03-26T06:28:15;100414.88;;;8.70;96.30
71764;BME280;59602;52.142;5.408;2023-03-26T06:30:42;100409.09;;;8.72;96.15
71764;BME280;59602;52.142;5.408;2023-03-26T06:33:09;100411.44;;;8.73;96.13
71764;BME280;59602;52.142;5.408;2023-03-26T06:35:36;100408.34;;;8.75;96.29
71764;BME280;59602;52.142;5.408;2023-03-26T06:38:03;100409.53;;;8.78;96.28
71764;BME280;59602;52.142;5.408;2023-03-26T06:40:31;100403.72;;;8.79;96.11
71764;BME280;59602;52.142;5.408;2023-03-26T06:42:58;100416.13;;;8.80;96.08
71764;BME280;59602;52.142;5.408;2023-03-26T06:45:36;100411.13;;;8.82;96.03
71764;BME280;59602;52.142;5.408;2023-03-26T06:48:04;100404.13;;;8.81;96.19
71764;BME280;59602;52.142;5.408;2023-03-26T06:50:31;100411.13;;;8.82;95.85
71764;BME280;59602;52.142;5.408;2023-03-26T06:52:58;100406.47;;;8.83;96.15
71764;BME280;59602;52.142;5.408;2023-03-26T06:55:26;100406.09;;;8.84;95.80
71764;BME280;59602;52.142;5.408;2023-03-26T06:57:54;100406.09;;;8.84;95.74
71764;BME280;59602;52.142;5.408;2023-03-26T07:00:22;100402.97;;;8.86;95.64
71764;BME280;59602;52.142;5.408;2023-03-26T07:02:49;100402.97;;;8.86;95.96
71764;BME280;59602;52.142;5.408;2023-03-26T07:05:16;100404.94;;;8.85;95.80
71764;BME280;59602;52.142;5.408;2023-03-26T07:07:43;100409.97;;;8.87;95.67
71764;BME280;59602;52.142;5.408;2023-03-26T07:10:13;100404.97;;;8.89;95.85
71764;BME280;59602;52.142;5.408;2023-03-26T07:12:39;100407.28;;;8.90;95.62
71764;BME280;59602;52.142;5.408;2023-03-26T07:15:08;100406.13;;;8.91;96.06
71764;BME280;59602;52.142;5.408;2023-03-26T07:17:36;100402.25;;;8.92;95.93
71764;BME280;59602;52.142;5.408;2023-03-26T07:20:04;100403.06;;;8.93;95.77
71764;BME280;59602;52.142;5.408;2023-03-26T07:22:32;100409.66;;;8.96;95.75
71764;BME280;59602;52.142;5.408;2023-03-26T07:24:58;100397.63;;;8.97;95.78
71764;BME280;59602;52.142;5.408;2023-03-26T07:27:32;100405.00;;;9.00;95.52
71764;BME280;59602;52.142;5.408;2023-03-26T07:30:08;100399.19;;;9.01;95.64
71764;BME280;59602;52.142;5.408;2023-03-26T07:33:00;100404.25;;;9.03;95.45
71764;BME280;59602;52.142;5.408;2023-03-26T07:35:39;100399.22;;;9.05;95.49
71764;BME280;59602;52.142;5.408;2023-03-26T07:38:27;100402.31;;;9.03;95.35
71764;BME280;59602;52.142;5.408;2023-03-26T07:43:47;100398.47;;;9.04;94.93
71764;BME280;59602;52.142;5.408;2023-03-26T07:46:23;100400.03;;;9.09;94.97
71764;BME280;59602;52.142;5.408;2023-03-26T07:48:53;100400.81;;;9.09;94.90
71764;BME280;59602;52.142;5.408;2023-03-26T07:51:23;100400.78;;;9.06;94.96
71764;BME280;59602;52.142;5.408;2023-03-26T07:53:52;100394.59;;;9.09;94.87
71764;BME280;59602;52.142;5.408;2023-03-26T07:56:25;100391.91;;;9.12;95.35
71764;BME280;59602;52.142;5.408;2023-03-26T07:59:09;100395.81;;;9.19;94.88
71764;BME280;59602;52.142;5.408;2023-03-26T08:04:37;100395.03;;;9.22;94.82
71764;BME280;59602;52.142;5.408;2023-03-26T08:15:34;100388.88;;;9.28;94.24
71764;BME280;59602;52.142;5.408;2023-03-26T08:20:58;100388.50;;;9.30;93.88
71764;BME280;59602;52.142;5.408;2023-03-26T08:23:33;100386.56;;;9.30;93.91
71764;BME280;59602;52.142;5.408;2023-03-26T08:29:12;100387.75;;;9.37;93.88
71764;BME280;59602;52.142;5.408;2023-03-26T08:31:43;100390.06;;;9.34;93.57
71764;BME280;59602;52.142;5.408;2023-03-26T08:34:11;100389.28;;;9.34;93.71
71764;BME280;59602;52.142;5.408;2023-03-26T08:36:40;100384.63;;;9.34;93.23
71764;BME280;59602;52.142;5.408;2023-03-26T08:39:06;100382.28;;;9.33;93.24
71764;BME280;59602;52.142;5.408;2023-03-26T08:45:01;100381.88;;;9.24;93.13
71764;BME280;59602;52.142;5.408;2023-03-26T08:50:49;100386.88;;;9.14;93.52
71764;BME280;59602;52.142;5.408;2023-03-26T08:53:46;100386.47;;;9.12;93.68
71764;BME280;59602;52.142;5.408;2023-03-26T09:06:09;100388.78;;;9.07;93.39
71764;BME280;59602;52.142;5.408;2023-03-26T09:14:50;100391.44;;;9.00;93.33
71764;BME280;59602;52.142;5.408;2023-03-26T09:17:28;100388.72;;;9.00;93.17
71764;BME280;59602;52.142;5.408;2023-03-26T09:23:30;100389.88;;;8.95;92.93
71764;BME280;59602;52.142;5.408;2023-03-26T09:26:25;100392.97;;;8.97;92.81
71764;BME280;59602;52.142;5.408;2023-03-26T09:37:42;100399.22;;;9.05;92.82
71764;BME280;59602;52.142;5.408;2023-03-26T09:40:31;100389.16;;;9.05;93.15
71764;BME280;59602;52.142;5.408;2023-03-26T09:46:07;100396.53;;;9.05;92.51
71764;BME280;59602;52.142;5.408;2023-03-26T09:49:06;100398.84;;;9.03;92.86
71764;BME280;59602;52.142;5.408;2023-03-26T09:51:46;100401.50;;;8.96;92.56
71764;BME280;59602;52.142;5.408;2023-03-26T09:54:40;100402.66;;;8.94;92.66
71764;BME280;59602;52.142;5.408;2023-03-26T09:59:53;100408.88;;;8.99;92.26
71764;BME280;59602;52.142;5.408;2023-03-26T10:08:11;100418.16;;;8.94;91.61
71764;BME280;59602;52.142;5.408;2023-03-26T10:11:17;100409.22;;;8.90;91.49
71764;BME280;59602;52.142;5.408;2023-03-26T10:14:12;100419.28;;;8.89;91.32
71764;BME280;59602;52.142;5.408;2023-03-26T10:16:54;100413.88;;;8.89;91.39
71764;BME280;59602;52.142;5.408;2023-03-26T10:19:42;100418.53;;;8.92;91.71
71764;BME280;59602;52.142;5.408;2023-03-26T10:30:20;100431.31;;;8.92;91.42
71764;BME280;59602;52.142;5.408;2023-03-26T10:32:58;100428.19;;;8.90;91.76
71764;BME280;59602;52.142;5.408;2023-03-26T10:41:27;100433.97;;;8.88;92.49
71764;BME280;59602;52.142;5.408;2023-03-26T10:46:42;100442.06;;;8.78;92.17
71764;BME280;59602;52.142;5.408;2023-03-26T10:49:27;100438.09;;;8.68;92.07
71764;BME280;59602;52.142;5.408;2023-03-26T10:52:02;100440.03;;;8.67;92.20
71764;BME280;59602;52.142;5.408;2023-03-26T11:00:14;100447.00;;;8.68;91.99
71764;BME280;59602;52.142;5.408;2023-03-26T11:02:47;100450.53;;;8.69;91.85
71764;BME280;59602;52.142;5.408;2023-03-26T11:05:26;100452.00;;;8.63;91.90
71764;BME280;59602;52.142;5.408;2023-03-26T11:08:05;100457.03;;;8.61;91.59
71764;BME280;59602;52.142;5.408;2023-03-26T11:10:39;100461.31;;;8.62;91.22
71764;BME280;59602;52.142;5.408;2023-03-26T11:15:56;100457.06;;;8.64;90.30
71764;BME280;59602;52.142;5.408;2023-03-26T11:18:56;100460.91;;;8.60;90.04
71764;BME280;59602;52.142;5.408;2023-03-26T11:21:38;100468.63;;;8.61;90.76
71764;BME280;59602;52.142;5.408;2023-03-26T11:24:29;100465.91;;;8.58;90.13
71764;BME280;59602;52.142;5.408;2023-03-26T11:27:07;100472.09;;;8.58;90.42
71764;BME280;59602;52.142;5.408;2023-03-26T11:29:48;100465.97;;;8.65;90.98
71764;BME280;59602;52.142;5.408;2023-03-26T11:32:21;100473.78;;;8.73;90.71
71764;BME280;59602;52.142;5.408;2023-03-26T11:34:59;100484.19;;;8.68;90.04
71764;BME280;59602;52.142;5.408;2023-03-26T11:37:37;100482.19;;;8.61;89.62
71764;BME280;59602;52.142;5.408;2023-03-26T11:40:14;100476.34;;;8.56;89.68
71764;BME280;59602;52.142;5.408;2023-03-26T11:42:42;100484.47;;;8.56;89.85
71764;BME280;59602;52.142;5.408;2023-03-26T11:45:17;100485.22;;;8.52;89.57
71764;BME280;59602;52.142;5.408;2023-03-26T11:47:51;100480.19;;;8.51;90.08
71764;BME280;59602;52.142;5.408;2023-03-26T11:50:41;100486.38;;;8.51;90.09
71764;BME280;59602;52.142;5.408;2023-03-26T11:53:12;100486.41;;;8.55;90.40
71764;BME280;59602;52.142;5.408;2023-03-26T11:55:45;100486.06;;;8.60;90.88
71764;BME280;59602;52.142;5.408;2023-03-26T11:58:32;100494.56;;;8.59;90.05
71764;BME280;59602;52.142;5.408;2023-03-26T12:01:03;100494.47;;;8.48;90.12
71764;BME280;59602;52.142;5.408;2023-03-26T12:03:30;100493.72;;;8.51;90.27
71764;BME280;59602;52.142;5.408;2023-03-26T12:05:58;100498.81;;;8.56;90.58
71764;BME280;59602;52.142;5.408;2023-03-26T12:08:30;100491.84;;;8.55;89.65
71764;BME280;59602;52.142;5.408;2023-03-26T12:11:03;100499.25;;;8.65;89.63
71764;BME280;59602;52.142;5.408;2023-03-26T12:13:38;100498.13;;;8.70;88.36
71764;BME280;59602;52.142;5.408;2023-03-26T12:16:11;100497.72;;;8.64;87.58
71764;BME280;59602;52.142;5.408;2023-03-26T12:18:40;100501.59;;;8.67;87.54
71764;BME280;59602;52.142;5.408;2023-03-26T12:21:12;100498.13;;;8.70;86.48
71764;BME280;59602;52.142;5.408;2023-03-26T12:23:54;100498.13;;;8.70;85.50
71764;BME280;59602;52.142;5.408;2023-03-26T12:26:34;100505.53;;;8.73;86.04
71764;BME280;59602;52.142;5.408;2023-03-26T12:29:11;100504.81;;;8.80;84.93
71764;BME280;59602;52.142;5.408;2023-03-26T12:31:54;100515.31;;;8.85;84.59
71764;BME280;59602;52.142;5.408;2023-03-26T12:34:29;100511.88;;;8.91;84.10
71764;BME280;59602;52.142;5.408;2023-03-26T12:36:57;100517.31;;;8.95;83.44
71764;BME280;59602;52.142;5.408;2023-03-26T12:39:29;100521.59;;;9.00;82.62
71764;BME280;59602;52.142;5.408;2023-03-26T12:42:25;100525.50;;;9.02;81.90
71764;BME280;59602;52.142;5.408;2023-03-26T12:45:13;100522.84;;;9.09;82.82
71764;BME280;59602;52.142;5.408;2023-03-26T12:47:40;100517.50;;;9.20;83.62
71764;BME280;59602;52.142;5.408;2023-03-26T12:50:40;100535.00;;;9.30;83.23
71764;BME280;59602;52.142;5.408;2023-03-26T12:55:58;100538.47;;;9.27;81.18
71764;BME280;59602;52.142;5.408;2023-03-26T13:01:00;100540.78;;;9.28;81.63
71764;BME280;59602;52.142;5.408;2023-03-26T13:03:37;100538.88;;;9.32;81.32
71764;BME280;59602;52.142;5.408;2023-03-26T13:06:21;100541.59;;;9.32;80.55
71764;BME280;59602;52.142;5.408;2023-03-26T13:09:27;100544.31;;;9.32;79.45
71764;BME280;59602;52.142;5.408;2023-03-26T13:14:47;100544.78;;;9.45;77.63
71764;BME280;59602;52.142;5.408;2023-03-26T13:20:02;100556.44;;;9.49;76.39
71764;BME280;59602;52.142;5.408;2023-03-26T13:22:40;100558.38;;;9.52;76.25
71764;BME280;59602;52.142;5.408;2023-03-26T13:25:23;100559.53;;;9.48;76.10
71764;BME280;59602;52.142;5.408;2023-03-26T13:28:14;100561.88;;;9.49;75.96
71764;BME280;59602;52.142;5.408;2023-03-26T13:33:56;100563.81;;;9.52;76.22
71764;BME280;59602;52.142;5.408;2023-03-26T13:39:48;100567.75;;;9.62;76.29
71764;BME280;59602;52.142;5.408;2023-03-26T13:42:37;100578.25;;;9.71;74.73
71764;BME280;59602;52.142;5.408;2023-03-26T13:45:48;100580.56;;;9.69;75.13
71764;BME280;59602;52.142;5.408;2023-03-26T13:51:57;100576.72;;;9.70;74.60
71764;BME280;59602;52.142;5.408;2023-03-26T13:54:30;100581.75;;;9.68;72.48
71764;BME280;59602;52.142;5.408;2023-03-26T13:57:19;100584.44;;;9.61;72.54
71764;BME280;59602;52.142;5.408;2023-03-26T14:00:12;100582.06;;;9.59;72.17
71764;BME280;59602;52.142;5.408;2023-03-26T14:03:06;100586.78;;;9.66;73.58
71764;BME280;59602;52.142;5.408;2023-03-26T14:09:21;100603.44;;;9.61;71.79
71764;BME280;59602;52.142;5.408;2023-03-26T14:17:24;100617.00;;;9.64;72.95
71764;BME280;59602;52.142;5.408;2023-03-26T14:23:10;100622.31;;;9.46;71.15
71764;BME280;59602;52.142;5.408;2023-03-26T14:28:42;100627.28;;;9.37;71.83
71764;BME280;59602;52.142;5.408;2023-03-26T14:42:28;100649.34;;;9.32;71.09
71764;BME280;59602;52.142;5.408;2023-03-26T14:48:08;100653.94;;;9.24;70.24
71764;BME280;59602;52.142;5.408;2023-03-26T14:51:32;100662.88;;;9.28;70.96
71764;BME280;59602;52.142;5.408;2023-03-26T14:54:08;100676.84;;;9.27;69.62
71764;BME280;59602;52.142;5.408;2023-03-26T15:04:33;100688.25;;;9.06;70.18
71764;BME280;59602;52.142;5.408;2023-03-26T15:07:22;100691.38;;;9.08;69.88
71764;BME280;59602;52.142;5.408;2023-03-26T15:10:10;100699.13;;;9.09;70.08
71764;BME280;59602;52.142;5.408;2023-03-26T15:13:00;100708.00;;;9.06;69.24
71764;BME280;59602;52.142;5.408;2023-03-26T15:23:43;100707.69;;;9.15;68.02
71764;BME280;59602;52.142;5.408;2023-03-26T15:32:07;100726.69;;;9.15;66.75
71764;BME280;59602;52.142;5.408;2023-03-26T15:34:47;100726.66;;;9.11;66.02
71764;BME280;59602;52.142;5.408;2023-03-26T15:43:14;100745.59;;;9.08;67.20
71764;BME280;59602;52.142;5.408;2023-03-26T15:45:45;100756.03;;;9.06;65.90
71764;BME280;59602;52.142;5.408;2023-03-26T15:48:27;100759.03;;;8.97;65.94
71764;BME280;59602;52.142;5.408;2023-03-26T15:51:13;100758.63;;;8.95;67.03
71764;BME280;59602;52.142;5.408;2023-03-26T15:53:56;100775.28;;;8.93;66.72
71764;BME280;59602;52.142;5.408;2023-03-26T15:56:36;100772.88;;;8.88;65.44
71764;BME280;59602;52.142;5.408;2023-03-26T15:59:21;100783.63;;;8.78;65.54
71764;BME280;59602;52.142;5.408;2023-03-26T16:01:59;100797.44;;;8.69;64.83
71764;BME280;59602;52.142;5.408;2023-03-26T16:04:39;100808.97;;;8.62;65.30
71764;BME280;59602;52.142;5.408;2023-03-26T16:09:55;100811.97;;;8.57;64.79
71764;BME280;59602;52.142;5.408;2023-03-26T16:12:31;100815.84;;;8.56;65.95
71764;BME280;59602;52.142;5.408;2023-03-26T16:15:29;100825.16;;;8.55;64.75
71764;BME280;59602;52.142;5.408;2023-03-26T16:20:47;100829.34;;;8.52;64.41
71764;BME280;59602;52.142;5.408;2023-03-26T16:26:21;100833.53;;;8.46;63.11
71764;BME280;59602;52.142;5.408;2023-03-26T16:31:21;100856.94;;;8.35;63.59
71764;BME280;59602;52.142;5.408;2023-03-26T16:36:33;100862.72;;;8.34;64.03
71764;BME280;59602;52.142;5.408;2023-03-26T16:44:23;100886.81;;;8.16;61.63
71764;BME280;59602;52.142;5.408;2023-03-26T16:52:01;100899.84;;;8.10;62.30